Time;durP1;ratioP1;P1;durP2;ratioP2;P2;SDS_P1;SDS_P2;PMS_P1;PMS_P2;Temp;Humidity;BMP_temperature;BMP_pressure;BME280_temperature;BME280_humidity;BME280_pressure;Samples;Min_cycle;Max_cycle;Signal;HPM_P1;HPM_P2
2021/09/10 00:00:48;;;;;;;2.97;1.75;;;;;;;28.84;23.43;98379.50;5068398;28;20484;-87
2021/09/10 00:03:14;;;;;;;2.75;1.80;;;;;;;28.72;23.76;98384.75;5067153;28;20043;-87
2021/09/10 00:05:40;;;;;;;3.72;1.90;;;;;;;28.83;24.18;98381.53;5067194;28;20036;-86
2021/09/10 00:08:06;;;;;;;2.17;1.75;;;;;;;28.45;24.68;98386.53;5067886;28;20032;-87
2021/09/10 00:10:32;;;;;;;2.22;1.73;;;;;;;28.54;24.22;98378.91;5063337;28;20029;-87
2021/09/10 00:12:59;;;;;;;4.20;2.13;;;;;;;28.75;23.33;98374.56;5054960;28;20435;-87
2021/09/10 00:15:25;;;;;;;3.42;1.67;;;;;;;28.90;23.34;98369.97;5062066;28;20068;-87
2021/09/10 00:17:51;;;;;;;3.10;1.80;;;;;;;28.96;23.48;98368.13;5064564;28;20036;-87
2021/09/10 00:20:18;;;;;;;3.97;2.13;;;;;;;28.88;23.56;98363.19;5069625;28;20044;-87
2021/09/10 00:22:44;;;;;;;1.55;1.25;;;;;;;28.49;23.58;98373.06;5059489;28;20094;-87
2021/09/10 00:25:10;;;;;;;1.67;1.50;;;;;;;28.46;24.39;98360.63;5064114;28;20032;-87
2021/09/10 00:27:36;;;;;;;4.05;2.45;;;;;;;28.40;23.58;98373.75;5064943;28;20107;-87
2021/09/10 00:30:05;;;;;;;2.83;2.03;;;;;;;28.59;23.94;98366.28;5064463;28;20030;-87
2021/09/10 00:32:32;;;;;;;1.88;1.35;;;;;;;28.73;23.82;98374.22;5066183;28;20032;-87
2021/09/10 00:34:58;;;;;;;4.82;1.20;;;;;;;29.01;23.07;98378.06;5069182;28;20048;-87
2021/09/10 00:37:24;;;;;;;2.22;1.60;;;;;;;29.21;22.62;98378.53;5055958;28;20093;-87
2021/09/10 00:39:50;;;;;;;2.53;1.80;;;;;;;29.11;22.58;98368.38;5061839;28;20366;-87
2021/09/10 00:42:17;;;;;;;2.90;1.58;;;;;;;29.06;22.59;98375.41;5061925;28;20036;-87
2021/09/10 00:44:43;;;;;;;2.00;1.55;;;;;;;28.73;22.85;98383.50;5060802;28;20039;-87
2021/09/10 00:47:09;;;;;;;2.33;1.58;;;;;;;28.55;23.22;98380.47;5056168;28;20492;-87
2021/09/10 00:49:36;;;;;;;3.40;1.73;;;;;;;28.62;23.46;98376.66;5063661;28;20041;-87
2021/09/10 00:52:02;;;;;;;2.33;1.50;;;;;;;28.55;23.70;98372.00;5061708;28;20029;-87
2021/09/10 00:54:29;;;;;;;1.85;1.60;;;;;;;28.55;23.49;98380.47;5065400;28;20053;-87
2021/09/10 00:56:55;;;;;;;2.20;1.40;;;;;;;28.52;23.31;98366.50;5069420;28;20033;-87
2021/09/10 00:59:21;;;;;;;3.92;1.33;;;;;;;28.50;23.51;98377.44;5054654;28;20158;-87
2021/09/10 01:01:48;;;;;;;1.23;1.10;;;;;;;28.55;23.18;98374.03;5062779;28;20118;-87
2021/09/10 01:04:14;;;;;;;2.50;1.50;;;;;;;28.73;22.94;98377.03;5059196;28;20511;-87
2021/09/10 01:06:42;;;;;;;1.45;1.35;;;;;;;28.81;22.64;98380.41;5051718;28;20029;-86
2021/09/10 01:09:08;;;;;;;2.05;1.77;;;;;;;28.83;22.85;98381.53;5063496;28;20039;-87
2021/09/10 01:11:35;;;;;;;2.38;1.60;;;;;;;28.84;22.82;98383.13;5062992;28;20074;-87
2021/09/10 01:14:02;;;;;;;2.22;1.33;;;;;;;28.82;21.92;98387.66;5068826;28;20035;-87
2021/09/10 01:16:29;;;;;;;1.70;1.60;;;;;;;27.90;22.47;98388.72;5069171;28;20115;-87
2021/09/10 01:18:55;;;;;;;3.47;1.80;;;;;;;27.30;23.68;98387.78;5068638;28;20037;-87
2021/09/10 01:21:21;;;;;;;1.40;1.30;;;;;;;27.22;24.03;98383.59;5060983;28;20119;-87
2021/09/10 01:23:47;;;;;;;3.08;1.65;;;;;;;27.43;24.51;98387.81;5061691;28;20111;-87
2021/09/10 01:26:13;;;;;;;1.85;1.45;;;;;;;27.00;25.08;98382.63;5068989;28;20060;-87
2021/09/10 01:28:39;;;;;;;1.70;1.35;;;;;;;27.36;24.09;98385.97;5070134;28;20032;-87
2021/09/10 01:31:05;;;;;;;1.95;1.45;;;;;;;27.59;24.37;98390.53;5068399;28;20028;-87
2021/09/10 01:33:31;;;;;;;2.65;1.73;;;;;;;27.81;24.03;98385.81;5070718;28;20404;-87
2021/09/10 01:35:57;;;;;;;2.35;1.63;;;;;;;27.95;23.36;98387.38;5068683;28;20087;-87
2021/09/10 01:38:25;;;;;;;1.58;1.20;;;;;;;27.88;23.65;98391.22;5066836;28;20036;-87
2021/09/10 01:40:51;;;;;;;2.55;1.55;;;;;;;27.80;23.97;98398.31;5068563;28;20726;-87
2021/09/10 01:43:20;;;;;;;4.35;1.35;;;;;;;27.52;23.93;98398.41;5059212;28;20091;-87
2021/09/10 01:45:46;;;;;;;5.15;1.52;;;;;;;27.20;25.04;98388.88;5064046;28;20055;-87
2021/09/10 01:48:12;;;;;;;2.80;1.67;;;;;;;27.04;24.62;98390.97;5056549;28;20029;-87
2021/09/10 01:50:38;;;;;;;2.08;1.88;;;;;;;26.53;25.85;98390.78;5064755;28;20037;-87
2021/09/10 01:53:05;;;;;;;1.98;1.60;;;;;;;25.84;26.66;98386.47;5063286;28;20425;-86
2021/09/10 01:55:32;;;;;;;1.60;1.50;;;;;;;26.19;26.77;98384.81;5061586;28;20108;-86
2021/09/10 01:57:59;;;;;;;1.67;1.38;;;;;;;25.93;26.76;98389.47;5063142;28;20017;-86
2021/09/10 02:00:25;;;;;;;1.60;1.50;;;;;;;26.12;26.34;98378.56;5073871;28;20392;-86
2021/09/10 02:02:51;;;;;;;1.85;1.52;;;;;;;26.44;26.21;98387.78;5065388;28;20496;-86
2021/09/10 02:05:17;;;;;;;1.52;1.20;;;;;;;26.69;25.87;98385.09;5069014;28;20037;-87
2021/09/10 02:07:43;;;;;;;1.83;1.40;;;;;;;26.79;25.91;98386.06;5072699;28;20040;-87
2021/09/10 02:10:12;;;;;;;2.75;1.80;;;;;;;26.70;25.56;98375.41;5074086;28;20029;-87
2021/09/10 02:12:39;;;;;;;2.03;1.27;;;;;;;27.16;24.55;98371.28;5070454;28;20131;-87
2021/09/10 02:15:07;;;;;;;2.03;1.17;;;;;;;27.29;25.02;98374.91;5067762;28;20036;-87
2021/09/10 02:17:33;;;;;;;1.25;1.10;;;;;;;27.57;24.88;98373.28;5069542;28;20028;-86
2021/09/10 02:19:59;;;;;;;3.33;1.45;;;;;;;27.50;24.62;98381.16;5060602;28;20050;-86
2021/09/10 02:22:25;;;;;;;1.67;1.10;;;;;;;27.46;24.56;98375.66;5064124;28;20056;-86
2021/09/10 02:24:51;;;;;;;2.33;1.42;;;;;;;27.34;24.67;98380.00;5070271;28;20037;-86
2021/09/10 02:27:17;;;;;;;1.77;1.15;;;;;;;27.63;24.11;98385.59;5065273;28;20110;-87
2021/09/10 02:29:43;;;;;;;1.63;1.25;;;;;;;27.76;23.86;98377.09;5054635;28;20044;-87
2021/09/10 02:32:10;;;;;;;3.13;1.35;;;;;;;27.84;23.71;98379.25;5059819;28;20036;-87
2021/09/10 02:34:36;;;;;;;1.77;1.05;;;;;;;27.72;23.14;98390.56;5066110;28;20029;-87
2021/09/10 02:37:02;;;;;;;2.65;1.27;;;;;;;27.35;23.35;98381.56;5074945;28;20111;-87
2021/09/10 02:39:28;;;;;;;1.33;1.10;;;;;;;27.22;23.65;98391.25;5074203;28;20424;-87
2021/09/10 02:41:54;;;;;;;2.22;1.10;;;;;;;26.82;24.53;98387.19;5056788;28;20029;-87
2021/09/10 02:44:20;;;;;;;1.30;1.10;;;;;;;26.97;24.19;98382.72;5070612;28;20032;-87
2021/09/10 02:46:46;;;;;;;1.80;1.33;;;;;;;26.90;24.02;98377.31;5073244;28;20361;-87
2021/09/10 02:49:12;;;;;;;1.40;1.20;;;;;;;26.91;24.04;98371.22;5073559;28;20065;-87
2021/09/10 02:51:39;;;;;;;1.33;1.23;;;;;;;26.87;23.99;98378.97;5058971;28;20028;-87
2021/09/10 02:54:05;;;;;;;1.35;1.13;;;;;;;27.03;24.56;98381.72;5074967;28;20116;-86
2021/09/10 02:56:31;;;;;;;2.00;1.15;;;;;;;26.78;25.19;98378.03;5059648;28;20392;-86
2021/09/10 02:58:57;;;;;;;2.05;1.40;;;;;;;26.66;24.47;98374.72;5064186;28;20025;-86
2021/09/10 03:01:23;;;;;;;1.30;0.98;;;;;;;26.69;24.91;98373.03;5068468;28;20044;-87
2021/09/10 03:03:49;;;;;;;1.65;1.25;;;;;;;26.73;24.87;98377.31;5064437;28;20035;-86
2021/09/10 03:06:15;;;;;;;1.27;0.90;;;;;;;26.91;24.33;98387.34;5070565;28;20079;-87
2021/09/10 03:08:42;;;;;;;1.70;1.20;;;;;;;27.24;23.73;98381.09;5068245;28;20043;-86
2021/09/10 03:11:09;;;;;;;3.80;1.00;;;;;;;27.61;22.98;98385.22;5071535;28;20034;-86
2021/09/10 03:13:35;;;;;;;1.52;1.20;;;;;;;28.03;22.07;98378.25;5073327;28;20024;-86
2021/09/10 03:16:01;;;;;;;1.08;0.95;;;;;;;27.82;22.14;98386.59;5063724;28;20028;-87
2021/09/10 03:18:27;;;;;;;2.78;1.25;;;;;;;27.42;22.64;98386.25;5074287;28;20086;-87
2021/09/10 03:20:53;;;;;;;3.65;1.30;;;;;;;26.91;23.74;98388.13;5054657;28;20125;-86
2021/09/10 03:23:19;;;;;;;2.53;1.58;;;;;;;26.84;25.21;98390.38;5072168;28;20036;-87
2021/09/10 03:25:45;;;;;;;1.60;1.00;;;;;;;26.76;24.95;98391.78;5054865;28;20059;-87
2021/09/10 03:28:11;;;;;;;2.17;1.23;;;;;;;26.71;24.05;98393.09;5073369;28;20469;-87
2021/09/10 03:30:38;;;;;;;1.83;1.27;;;;;;;26.77;24.05;98390.56;5071687;28;20511;-86
2021/09/10 03:33:04;;;;;;;1.30;1.08;;;;;;;26.96;23.57;98381.94;5036596;28;20378;-87
2021/09/10 03:35:30;;;;;;;1.80;1.13;;;;;;;26.92;23.75;98384.06;5065338;28;20075;-87
2021/09/10 03:37:56;;;;;;;1.60;1.10;;;;;;;27.08;23.61;98388.84;5068180;28;20048;-86
2021/09/10 03:40:24;;;;;;;1.10;1.00;;;;;;;27.30;23.03;98381.34;5058609;28;20103;-86
2021/09/10 03:42:51;;;;;;;1.48;1.20;;;;;;;27.31;22.98;98386.53;5061903;28;20024;-86
2021/09/10 03:45:17;;;;;;;1.05;0.95;;;;;;;27.24;23.14;98380.31;5066987;28;20095;-86
2021/09/10 03:47:43;;;;;;;2.05;1.15;;;;;;;27.15;23.11;98388.63;5062824;28;20033;-86
2021/09/10 03:50:09;;;;;;;1.85;1.00;;;;;;;27.04;23.15;98388.16;5068093;28;20041;-86
2021/09/10 03:52:35;;;;;;;0.98;0.85;;;;;;;26.88;23.88;98380.56;5072613;28;20028;-86
2021/09/10 03:55:01;;;;;;;1.40;1.27;;;;;;;26.83;24.05;98386.75;5056178;28;20404;-86
2021/09/10 03:57:27;;;;;;;2.25;1.13;;;;;;;26.84;23.78;98384.72;5062625;28;20492;-86
2021/09/10 03:59:53;;;;;;;1.70;1.08;;;;;;;27.04;23.80;98388.97;5073641;28;20036;-86
2021/09/10 04:02:19;;;;;;;1.02;0.70;;;;;;;27.38;23.23;98389.16;5071544;28;20037;-86
2021/09/10 04:04:45;;;;;;;1.30;1.13;;;;;;;27.85;22.57;98388.50;5071538;28;20141;-86
2021/09/10 04:07:11;;;;;;;1.25;1.15;;;;;;;28.23;21.98;98382.84;5074678;28;20032;-85
2021/09/10 04:09:37;;;;;;;1.40;1.00;;;;;;;28.52;21.27;98375.75;5074222;28;20086;-85
2021/09/10 04:12:04;;;;;;;1.17;0.90;;;;;;;28.51;21.58;98385.47;5068875;28;20077;-85
2021/09/10 04:14:30;;;;;;;1.13;0.90;;;;;;;28.31;22.45;98379.31;5071759;28;20097;-87
2021/09/10 04:16:56;;;;;;;1.55;1.00;;;;;;;28.48;21.92;98388.41;5070121;28;20467;-86
2021/09/10 04:19:22;;;;;;;1.30;0.88;;;;;;;28.31;22.08;98382.13;5070399;28;20071;-86
2021/09/10 04:21:48;;;;;;;1.27;1.08;;;;;;;28.14;22.42;98386.38;5050895;28;20049;-87
2021/09/10 04:24:18;;;;;;;1.08;0.90;;;;;;;28.25;22.53;98391.63;5071290;28;20488;-86
2021/09/10 04:26:44;;;;;;;2.25;1.15;;;;;;;28.16;22.57;98388.72;5070382;28;20119;-87
2021/09/10 04:29:10;;;;;;;1.88;1.20;;;;;;;28.31;22.47;98389.84;5065650;28;20473;-85
2021/09/10 04:31:37;;;;;;;1.20;0.95;;;;;;;28.55;22.17;98394.63;5065746;28;20029;-88
2021/09/10 04:34:03;;;;;;;2.33;1.08;;;;;;;28.62;22.23;98394.38;5070849;28;20044;-86
2021/09/10 04:36:29;;;;;;;1.35;1.17;;;;;;;28.55;22.15;98393.81;5072038;28;20033;-86
2021/09/10 04:38:55;;;;;;;1.35;1.25;;;;;;;28.48;22.07;98389.22;5072765;28;20044;-86
2021/09/10 04:41:21;;;;;;;1.75;1.00;;;;;;;28.78;22.09;98393.41;5072305;28;20029;-86
2021/09/10 04:43:47;;;;;;;1.58;1.00;;;;;;;29.15;21.87;98392.44;5067770;28;20039;-85
2021/09/10 04:46:13;;;;;;;1.83;1.00;;;;;;;29.52;21.71;98395.53;5065867;28;20028;-86
2021/09/10 04:48:39;;;;;;;1.13;0.90;;;;;;;29.54;21.50;98396.63;5072697;28;20040;-86
2021/09/10 04:51:05;;;;;;;2.42;1.00;;;;;;;29.85;21.44;98399.50;5072254;28;20040;-88
2021/09/10 04:53:31;;;;;;;0.98;0.88;;;;;;;29.77;21.62;98398.19;5073318;28;20519;-87
2021/09/10 04:55:57;;;;;;;1.10;0.90;;;;;;;29.97;21.64;98407.06;5069326;28;20074;-88
2021/09/10 04:58:23;;;;;;;0.98;0.73;;;;;;;30.23;21.57;98410.44;5052263;28;20066;-89
2021/09/10 05:00:49;;;;;;;1.33;0.90;;;;;;;30.27;21.92;98400.53;5070402;28;20050;-89
2021/09/10 05:03:15;;;;;;;0.68;0.68;;;;;;;30.42;21.67;98401.56;5072814;28;20032;-87
2021/09/10 05:05:41;;;;;;;0.60;0.60;;;;;;;30.42;22.04;98395.88;5072916;28;20039;-87
2021/09/10 05:08:08;;;;;;;1.15;0.70;;;;;;;30.17;22.17;98403.81;5073345;28;20075;-87
2021/09/10 05:10:34;;;;;;;0.98;0.63;;;;;;;29.76;22.98;98405.09;5072225;28;20495;-88
2021/09/10 05:13:00;;;;;;;1.17;0.90;;;;;;;29.39;24.28;98401.25;5073495;28;20028;-88
2021/09/10 05:15:27;;;;;;;0.80;0.80;;;;;;;29.71;23.66;98400.78;5072457;28;20021;-88
2021/09/10 05:17:53;;;;;;;1.10;0.90;;;;;;;29.60;24.02;98411.75;5073627;28;20029;-86
2021/09/10 05:20:19;;;;;;;1.10;0.80;;;;;;;29.53;24.18;98403.53;5073205;28;20048;-87
2021/09/10 05:22:45;;;;;;;3.78;1.00;;;;;;;29.41;24.22;98402.38;5073351;28;20029;-87
2021/09/10 05:25:11;;;;;;;2.03;0.75;;;;;;;29.45;24.17;98402.25;5072336;28;20094;-88
2021/09/10 05:27:37;;;;;;;1.30;1.10;;;;;;;28.98;25.18;98398.75;5072455;28;20107;-88
2021/09/10 05:30:04;;;;;;;0.75;0.70;;;;;;;28.98;25.00;98408.03;5073309;28;20503;-86
2021/09/10 05:32:31;;;;;;;1.50;1.00;;;;;;;29.52;25.14;98393.50;5072351;28;20036;-86
2021/09/10 05:34:57;;;;;;;1.08;0.95;;;;;;;29.83;24.37;98401.97;5072254;28;20032;-87
2021/09/10 05:37:23;;;;;;;2.25;1.17;;;;;;;29.77;25.31;98393.31;5070076;28;20127;-87
2021/09/10 05:39:49;;;;;;;1.75;1.10;;;;;;;29.60;25.64;98388.31;5070813;28;20058;-87
2021/09/10 05:42:15;;;;;;;2.60;0.90;;;;;;;29.82;25.49;98404.03;5070101;28;20090;-87
2021/09/10 05:44:41;;;;;;;1.17;0.80;;;;;;;30.46;24.73;98398.56;5066002;28;20066;-87
2021/09/10 05:47:07;;;;;;;1.23;1.13;;;;;;;30.41;25.42;98405.63;5071239;28;20051;-87
2021/09/10 05:49:33;;;;;;;1.58;1.10;;;;;;;30.13;25.88;98403.97;5069390;28;20115;-87
2021/09/10 05:51:59;;;;;;;1.83;1.13;;;;;;;29.79;26.39;98401.34;5072364;28;20037;-87
2021/09/10 05:54:25;;;;;;;1.83;0.90;;;;;;;29.63;26.81;98401.53;5066720;28;20056;-87
2021/09/10 05:56:51;;;;;;;0.98;0.90;;;;;;;29.73;26.76;98406.81;5071368;28;20045;-87
2021/09/10 05:59:17;;;;;;;1.52;1.00;;;;;;;29.82;26.98;98417.41;5072692;28;20426;-87
2021/09/10 06:01:43;;;;;;;1.27;1.13;;;;;;;30.01;27.23;98416.22;5069369;28;20078;-87
2021/09/10 06:04:09;;;;;;;0.98;0.82;;;;;;;30.20;26.17;98403.66;5071699;28;20033;-87
2021/09/10 06:06:37;;;;;;;1.70;1.15;;;;;;;30.54;26.74;98411.97;5072785;28;20078;-87
2021/09/10 06:09:03;;;;;;;1.70;1.38;;;;;;;30.64;26.94;98409.94;5071603;28;20025;-87
2021/09/10 06:11:30;;;;;;;1.23;1.13;;;;;;;30.56;25.71;98408.66;5072910;28;20503;-87
2021/09/10 06:13:56;;;;;;;2.15;1.60;;;;;;;30.39;26.54;98413.03;5072413;28;20383;-87
2021/09/10 06:16:22;;;;;;;1.75;1.40;;;;;;;30.48;26.97;98413.84;5055461;28;20021;-88
2021/09/10 06:18:48;;;;;;;3.70;1.38;;;;;;;30.49;27.47;98412.59;5068519;28;20036;-87
2021/09/10 06:21:14;;;;;;;2.17;1.67;;;;;;;29.92;26.67;98410.53;5070022;28;20113;-88
2021/09/10 06:23:41;;;;;;;1.77;1.40;;;;;;;30.08;27.35;98407.44;5069684;28;20026;-87
2021/09/10 06:26:07;;;;;;;2.03;1.65;;;;;;;30.11;28.17;98412.13;5069430;28;20093;-87
2021/09/10 06:28:33;;;;;;;2.60;1.33;;;;;;;30.04;27.58;98415.25;5069333;28;20404;-88
2021/09/10 06:31:01;;;;;;;6.18;1.73;;;;;;;30.19;27.59;98412.63;5069152;28;20509;-88
2021/09/10 06:33:27;;;;;;;2.95;1.70;;;;;;;30.86;27.46;98424.72;5046243;28;20025;-88
2021/09/10 06:35:53;;;;;;;1.77;1.20;;;;;;;31.59;25.32;98416.97;5069035;28;20071;-85
2021/09/10 06:38:19;;;;;;;3.55;1.70;;;;;;;31.01;26.87;98416.41;5049641;28;20087;-86
2021/09/10 06:40:45;;;;;;;2.60;1.83;;;;;;;30.97;26.68;98422.25;5066438;28;20028;-85
2021/09/10 06:43:11;;;;;;;1.30;1.13;;;;;;;30.94;26.12;98430.91;5068751;28;20044;-85
2021/09/10 06:45:37;;;;;;;1.85;1.23;;;;;;;31.17;26.80;98421.75;5066264;28;20047;-86
2021/09/10 06:48:03;;;;;;;1.85;1.35;;;;;;;31.12;28.06;98426.03;5070205;28;20463;-85
2021/09/10 06:50:29;;;;;;;1.92;1.63;;;;;;;30.24;27.25;98427.00;5072360;28;20157;-86
2021/09/10 06:52:55;;;;;;;1.85;1.30;;;;;;;30.45;27.84;98428.97;5071930;28;20032;-85
2021/09/10 06:55:21;;;;;;;1.25;1.10;;;;;;;31.11;28.07;98432.19;5070941;28;20036;-85
2021/09/10 06:57:47;;;;;;;3.72;1.73;;;;;;;30.52;27.34;98430.69;5063485;28;20033;-85
2021/09/10 07:00:15;;;;;;;2.35;1.73;;;;;;;31.51;26.94;98429.91;5063140;28;20037;-86
2021/09/10 07:02:41;;;;;;;1.92;1.30;;;;;;;31.31;26.38;98430.41;5058132;28;20489;-88
2021/09/10 07:05:08;;;;;;;1.63;1.40;;;;;;;31.14;27.15;98434.06;5071533;28;20066;-89
2021/09/10 07:07:34;;;;;;;1.92;1.50;;;;;;;31.08;26.66;98436.75;5071610;28;20796;-89
2021/09/10 07:10:00;;;;;;;1.35;1.23;;;;;;;31.45;25.43;98440.34;5068224;28;20036;-90
2021/09/10 07:12:26;;;;;;;1.83;1.30;;;;;;;32.45;25.01;98437.91;5056210;28;20514;-89
2021/09/10 07:14:52;;;;;;;2.05;1.20;;;;;;;33.22;24.86;98435.97;5074928;28;20040;-89
2021/09/10 07:17:20;;;;;;;2.03;1.63;;;;;;;32.99;25.13;98448.16;5075256;28;20037;-89
2021/09/10 07:19:47;;;;;;;1.77;1.30;;;;;;;32.89;23.89;98440.97;5074743;28;20029;-90
2021/09/10 07:22:13;;;;;;;2.67;1.50;;;;;;;33.00;25.28;98438.31;5071909;28;20094;-90
2021/09/10 07:24:39;;;;;;;4.10;1.70;;;;;;;33.29;24.73;98441.28;5074788;28;20066;-89
2021/09/10 07:27:05;;;;;;;2.47;1.60;;;;;;;33.55;24.83;98446.41;5067410;28;20461;-90
2021/09/10 07:29:31;;;;;;;2.08;1.33;;;;;;;33.39;25.43;98436.28;5056575;28;20471;-90
2021/09/10 07:31:58;;;;;;;2.92;1.70;;;;;;;32.71;25.18;98443.94;5053901;28;20041;-89
2021/09/10 07:34:24;;;;;;;2.63;1.80;;;;;;;33.53;24.64;98443.28;5073334;28;20548;-89
2021/09/10 07:36:51;;;;;;;3.17;1.80;;;;;;;33.05;24.73;98439.78;5049364;28;20377;-89
2021/09/10 07:39:19;;;;;;;3.13;1.90;;;;;;;32.78;25.58;98451.31;5071756;28;20028;-89
2021/09/10 07:41:46;;;;;;;1.63;1.52;;;;;;;33.25;24.72;98440.69;5076051;28;20040;-89
2021/09/10 07:44:14;;;;;;;2.63;1.88;;;;;;;33.13;23.62;98447.44;5074947;28;20495;-89
2021/09/10 07:46:41;;;;;;;3.55;1.42;;;;;;;32.60;25.07;98452.25;5070154;28;20399;-89
2021/09/10 07:49:08;;;;;;;2.10;1.52;;;;;;;32.68;26.19;98453.44;5075007;28;20043;-89
2021/09/10 07:51:35;;;;;;;2.70;1.25;;;;;;;33.63;23.58;98448.38;5075107;28;20028;-89
2021/09/10 07:54:05;;;;;;;2.58;1.38;;;;;;;34.44;23.31;98449.47;5073691;28;20028;-89
2021/09/10 07:56:32;;;;;;;3.77;1.77;;;;;;;34.78;23.22;98456.44;5074211;28;20043;-89
2021/09/10 07:58:58;;;;;;;2.97;1.42;;;;;;;34.73;22.19;98452.22;5054469;28;20025;-88
2021/09/10 08:01:25;;;;;;;1.73;1.20;;;;;;;34.55;21.40;98451.72;5071947;28;20060;-89
2021/09/10 08:03:51;;;;;;;2.13;1.52;;;;;;;33.33;21.93;98458.16;5073411;28;20033;-89
2021/09/10 08:06:17;;;;;;;7.72;1.85;;;;;;;33.16;22.74;98462.75;5073508;28;20440;-89
2021/09/10 08:08:43;;;;;;;3.80;1.85;;;;;;;32.82;25.07;98451.91;5055663;28;20033;-89
2021/09/10 08:11:09;;;;;;;5.18;1.38;;;;;;;33.73;23.70;98457.63;5072474;28;20028;-89
2021/09/10 08:13:36;;;;;;;2.45;1.25;;;;;;;34.21;23.20;98458.19;5072259;28;20051;-89
2021/09/10 08:16:03;;;;;;;1.10;1.00;;;;;;;34.58;22.69;98457.22;5071495;28;20410;-89
2021/09/10 08:18:29;;;;;;;1.10;1.00;;;;;;;34.96;21.80;98450.44;5067533;28;20045;-89
2021/09/10 08:20:57;;;;;;;1.55;0.90;;;;;;;34.91;20.38;98458.94;5072135;28;20452;-89
2021/09/10 08:23:26;;;;;;;1.15;0.90;;;;;;;34.86;21.96;98445.38;5050713;28;20068;-89
2021/09/10 08:25:52;;;;;;;2.45;1.00;;;;;;;34.67;21.54;98453.44;5073077;28;20070;-89
2021/09/10 08:28:19;;;;;;;1.42;0.90;;;;;;;34.72;21.92;98447.81;5067964;28;20514;-89
2021/09/10 08:30:48;;;;;;;1.20;1.10;;;;;;;35.19;20.09;98449.47;5072359;28;20067;-89
2021/09/10 08:33:15;;;;;;;1.38;1.00;;;;;;;35.29;21.17;98450.06;5068936;28;20034;-89
2021/09/10 08:35:41;;;;;;;0.80;0.70;;;;;;;35.32;20.91;98443.34;5070713;28;20040;-89
2021/09/10 08:38:07;;;;;;;1.05;1.00;;;;;;;34.38;21.27;98450.69;5062112;28;20028;-88
2021/09/10 08:40:34;;;;;;;2.10;0.98;;;;;;;33.91;23.55;98451.72;5070894;28;20476;-89
2021/09/10 08:43:01;;;;;;;1.02;0.93;;;;;;;33.70;24.14;98447.97;5070407;28;20036;-89
2021/09/10 08:45:28;;;;;;;0.93;0.90;;;;;;;34.10;23.53;98440.91;5066633;28;20074;-89
2021/09/10 08:47:55;;;;;;;1.05;0.95;;;;;;;34.53;21.88;98440.03;5053386;28;20044;-89
2021/09/10 08:50:23;;;;;;;1.10;1.00;;;;;;;32.71;24.48;98452.47;5061804;28;20570;-89
2021/09/10 08:52:52;;;;;;;1.90;1.15;;;;;;;31.93;23.04;98453.44;5066754;28;20025;-89
2021/09/10 08:55:19;;;;;;;1.20;1.10;;;;;;;31.87;23.61;98452.53;5045936;28;20032;-89
2021/09/10 08:57:54;;;;;;;1.15;1.05;;;;;;;33.20;23.02;98440.56;5064701;28;20097;-89
2021/09/10 09:00:27;;;;;;;1.85;1.10;;;;;;;32.14;24.14;98448.81;5064035;28;20087;-90
2021/09/10 09:02:59;;;;;;;3.25;0.90;;;;;;;33.47;22.46;98442.38;5068342;28;20060;-90
2021/09/10 09:05:26;;;;;;;1.52;1.42;;;;;;;31.85;23.85;98448.59;5060190;28;20071;-90
2021/09/10 09:08:18;;;;;;;2.45;1.08;;;;;;;31.93;22.39;98450.63;5068921;28;20041;-88
2021/09/10 09:11:04;;;;;;;1.25;0.90;;;;;;;33.48;20.90;98441.09;5068638;28;20074;-89
2021/09/10 09:13:48;;;;;;;1.90;1.23;;;;;;;32.97;21.42;98441.38;5060981;28;20091;-88
2021/09/10 09:16:26;;;;;;;1.67;1.23;;;;;;;33.20;23.36;98435.66;5062886;28;20485;-87
2021/09/10 09:18:55;;;;;;;1.33;0.93;;;;;;;33.84;21.58;98435.78;5047854;28;20136;-89
2021/09/10 09:21:25;;;;;;;1.50;0.95;;;;;;;33.63;20.37;98436.22;5068306;28;20122;-90
2021/09/10 09:23:53;;;;;;;0.93;0.80;;;;;;;34.41;19.17;98429.72;5063570;28;20121;-89
2021/09/10 09:26:23;;;;;;;2.47;1.20;;;;;;;33.83;21.11;98430.59;5072359;28;20043;-90
2021/09/10 09:29:03;;;;;;;3.30;1.58;;;;;;;32.20;23.23;98432.69;5072405;28;20043;-87
2021/09/10 09:31:29;;;;;;;1.30;1.00;;;;;;;33.72;20.75;98424.72;5066679;28;20478;-87
2021/09/10 09:33:56;;;;;;;1.08;0.90;;;;;;;34.50;20.13;98426.72;5058152;28;20025;-87
2021/09/10 09:36:22;;;;;;;1.25;0.90;;;;;;;34.71;20.17;98429.13;5064867;28;20037;-86
2021/09/10 09:38:48;;;;;;;3.95;1.17;;;;;;;34.55;20.36;98421.13;5049995;28;20028;-85
2021/09/10 09:41:22;;;;;;;2.33;0.90;;;;;;;34.87;21.46;98424.13;5063841;28;20068;-86
2021/09/10 09:43:50;;;;;;;1.10;1.00;;;;;;;35.31;19.68;98414.00;5061493;28;20017;-89
2021/09/10 09:46:21;;;;;;;0.70;0.70;;;;;;;35.03;19.45;98418.63;5064722;28;20039;-86
2021/09/10 09:48:50;;;;;;;1.35;0.80;;;;;;;35.66;18.45;98424.53;5064284;28;20052;-87
2021/09/10 09:51:20;;;;;;;1.25;0.73;;;;;;;36.12;18.70;98428.03;5067355;28;20104;-87
2021/09/10 09:53:48;;;;;;;3.08;0.63;;;;;;;36.20;18.44;98419.78;5061466;28;20028;-87
2021/09/10 09:56:14;;;;;;;2.05;1.00;;;;;;;35.60;18.68;98424.47;5066643;28;20024;-87
2021/09/10 09:58:42;;;;;;;0.95;0.60;;;;;;;35.02;19.24;98427.72;5064876;28;20060;-87
2021/09/10 10:01:12;;;;;;;0.75;0.73;;;;;;;35.28;19.21;98412.19;5060625;28;20029;-83
2021/09/10 10:03:39;;;;;;;3.57;0.87;;;;;;;35.55;18.13;98416.63;5071650;28;20028;-87
2021/09/10 10:06:22;;;;;;;0.93;0.80;;;;;;;35.84;17.18;98412.72;5072917;28;20032;-87
2021/09/10 10:09:03;;;;;;;0.73;0.73;;;;;;;36.53;18.36;98412.19;5072893;28;20041;-87
2021/09/10 10:11:39;;;;;;;0.73;0.65;;;;;;;36.99;16.75;98411.94;5072859;28;20044;-87
2021/09/10 10:14:06;;;;;;;0.90;0.70;;;;;;;36.77;17.59;98408.16;5072500;28;20459;-86
2021/09/10 10:16:45;;;;;;;1.40;0.80;;;;;;;35.31;17.06;98404.69;5073017;28;20111;-86
2021/09/10 10:19:20;;;;;;;0.55;0.55;;;;;;;36.32;17.70;98404.22;5076402;28;20035;-86
2021/09/10 10:21:55;;;;;;;0.77;0.70;;;;;;;36.98;17.00;98404.63;5074448;28;20550;-86
2021/09/10 10:24:45;;;;;;;0.80;0.80;;;;;;;34.77;17.28;98414.16;5067991;28;20038;-86
2021/09/10 10:27:33;;;;;;;4.28;1.00;;;;;;;33.80;18.46;98406.72;5066252;28;20763;-84
2021/09/10 10:30:03;;;;;;;0.55;0.50;;;;;;;35.22;17.61;98399.13;5071699;28;20083;-84
2021/09/10 10:32:40;;;;;;;0.80;0.80;;;;;;;34.51;18.41;98402.63;5068835;28;20034;-85
2021/09/10 10:35:30;;;;;;;1.73;0.90;;;;;;;34.51;18.42;98399.78;5070059;28;20031;-85
2021/09/10 10:38:02;;;;;;;2.58;0.73;;;;;;;35.31;17.96;98398.97;5066439;28;20017;-85
2021/09/10 10:40:49;;;;;;;0.60;0.60;;;;;;;35.96;17.03;98391.50;5071954;28;20048;-84
2021/09/10 10:43:18;;;;;;;2.15;0.68;;;;;;;36.69;16.59;98390.66;5069296;28;20119;-84
2021/09/10 10:45:44;;;;;;;1.25;0.60;;;;;;;37.43;15.45;98396.94;5071374;28;20094;-85
2021/09/10 10:48:28;;;;;;;0.77;0.77;;;;;;;37.06;15.80;98399.19;5075762;28;20472;-85
2021/09/10 10:51:21;;;;;;;0.73;0.65;;;;;;;36.81;15.89;98395.16;5070509;28;20042;-86
2021/09/10 10:53:47;;;;;;;1.13;0.60;;;;;;;37.47;14.98;98385.22;5069938;28;20047;-87
2021/09/10 10:56:25;;;;;;;0.63;0.63;;;;;;;37.17;16.17;98385.69;5079103;28;20037;-85
2021/09/10 10:59:16;;;;;;;1.00;0.80;;;;;;;37.55;15.06;98374.81;5078213;28;20039;-86
2021/09/10 11:02:22;;;;;;;1.70;0.60;;;;;;;37.67;15.36;98371.41;5072052;28;20037;-84
2021/09/10 11:04:57;;;;;;;1.17;0.70;;;;;;;38.31;15.90;98378.94;5072973;28;20549;-84
2021/09/10 11:07:25;;;;;;;0.60;0.60;;;;;;;38.61;14.17;98368.41;5057698;28;20170;-85
2021/09/10 11:10:14;;;;;;;0.60;0.45;;;;;;;38.67;15.30;98365.53;5066207;28;20036;-85
2021/09/10 11:12:42;;;;;;;1.20;0.80;;;;;;;38.56;14.62;98369.22;5063915;28;20048;-85
2021/09/10 11:15:18;;;;;;;0.75;0.75;;;;;;;38.70;16.03;98364.47;5071390;28;20029;-84
2021/09/10 11:17:52;;;;;;;0.60;0.60;;;;;;;38.77;15.63;98366.03;5068612;28;20032;-84
2021/09/10 11:20:43;;;;;;;0.75;0.75;;;;;;;39.33;16.11;98365.19;5068428;28;20053;-84
2021/09/10 11:23:09;;;;;;;;;;;;;;;39.09;13.67;98364.31;5066622;28;20028;-84
2021/09/10 11:25:49;;;;;;;0.75;0.63;;;;;;;37.77;15.10;98357.59;5071265;28;19916;-86
2021/09/10 11:28:16;;;;;;;4.05;0.60;;;;;;;35.86;16.15;98361.53;5063042;28;20507;-85
2021/09/10 11:30:44;;;;;;;0.77;0.77;;;;;;;35.41;17.57;98346.09;5073626;28;20020;-86
2021/09/10 11:33:11;;;;;;;1.48;0.85;;;;;;;36.05;16.91;98346.38;5068894;28;20033;-85
2021/09/10 11:35:38;;;;;;;3.42;0.82;;;;;;;36.25;16.91;98344.66;5059430;28;20056;-85
2021/09/10 11:38:12;;;;;;;0.98;0.73;;;;;;;37.47;16.64;98337.28;5060272;28;20051;-85